Home   Weather   Woodenbong Peak   Past weeks
Flag for Australia

Past Weather in Woodenbong Peak, New South Wales, Australia — Yesterday and Last 2 Weeks

Currently: 62 °F. Cool. (Weather station: MADIS Weather Station E5738 (APRSWXNET), Australia). See more current weather

Past Weather in Woodenbong Peak — Graph

°F

Woodenbong Peak Temperature Yesterday

Maximum temperature yesterday: 70 °F (at 12:15 pm)
Minimum temperature yesterday: 61 °F (at 12:15 am)
Average temperature yesterday: 64 °F

High & Low Weather Summary for the Past Weeks

 TemperatureHumidityPressure
High79 °F (May 15, 2:00 pm)98% (May 14, 9:15 pm)30.10 "Hg (May 14, 9:15 pm)
Low60 °F (May 21, 4:45 am)72% (May 24, 2:45 pm)29.62 "Hg (May 15, 2:45 pm)
Average67 °F92%29.86 "Hg
* Reported May 11 12:00 am — May 26 12:00 am, Woodenbong Peak. Weather by CustomWeather, © 2022

Note: Actual official high and low records may vary slightly from our data, if they occured in-between our weather recording intervals... More about our weather records

Woodenbong Peak Weather History for the Previous 24 Hours

Scroll right to see more
 ConditionsComfort  
Time TempWeatherWind HumidityBarometerVisibility
12:00 am
Thu, May 26
63 °FCool.3 mph89%29.87 "HgN/A
11:15 pm
Wed, May 25
62 °FCool.2 mph90%29.88 "HgN/A
9:30 pm63 °FCool.4 mph90%29.88 "HgN/A
9:15 pm63 °FCool.1 mph89%29.90 "HgN/A
9:00 pm63 °FCool.No wind89%29.90 "HgN/A
8:45 pm63 °FCool.4 mph89%29.90 "HgN/A
8:15 pm64 °FCool.4 mph88%29.90 "HgN/A
7:45 pm65 °FCool.3 mph86%29.91 "HgN/A
7:15 pm65 °FCool.3 mph86%29.90 "HgN/A
6:15 pm65 °FCool.No wind86%29.88 "HgN/A
5:45 pm66 °FCool.3 mph85%29.87 "HgN/A
4:45 pm66 °FCool.2 mph83%29.87 "HgN/A
4:30 pm67 °FCool.3 mph83%29.87 "HgN/A
4:15 pm67 °FCool.4 mph81%29.86 "HgN/A
3:15 pm67 °FCool.4 mph80%29.86 "HgN/A
2:15 pm67 °FCool.8 mph81%29.85 "HgN/A
1:45 pm67 °FCool.No wind86%29.86 "HgN/A
1:00 pm70 °FCool.7 mph73%29.87 "HgN/A
12:15 pm70 °FCool.4 mph76%29.89 "HgN/A
11:45 am68 °FCool.4 mph81%29.91 "HgN/A
10:45 am69 °FCool.3 mph77%29.93 "HgN/A
10:15 am68 °FCool.3 mph80%29.95 "HgN/A
10:00 am68 °FCool.4 mph79%29.95 "HgN/A
9:15 am65 °FCool.5 mph84%29.96 "HgN/A
9:00 am64 °FCool.3 mph85%29.95 "HgN/A
8:45 am63 °FCool.4 mph86%29.95 "HgN/A
8:15 am63 °FCool.3 mph86%29.95 "HgN/A
6:45 am61 °FCool.5 mph87%29.94 "HgN/A
6:30 am62 °FCool.7 mph87%29.93 "HgN/A
6:15 am62 °FCool.6 mph87%29.94 "HgN/A
5:45 am61 °FCool.4 mph88%29.93 "HgN/A
4:30 am61 °FCool.3 mph90%29.92 "HgN/A
3:15 am61 °FCool.7 mph89%29.92 "HgN/A
3:00 am62 °FCool.3 mph88%29.93 "HgN/A
2:45 am62 °FCool.7 mph86%29.92 "HgN/A
2:01 am62 °FCool.6 mph88%29.93 "HgN/A
1:46 am62 °FCool.5 mph88%29.93 "HgN/A
1:15 am62 °FCool.5 mph89%29.94 "HgN/A
1:00 am62 °FCool.5 mph89%29.95 "HgN/A
Weather by CustomWeather, © 2022

See weather overview